createdAt,value
2022-12-05T00:01:31.992Z,70.67
2022-12-05T00:04:00.626Z,74.87
2022-12-05T00:06:28.938Z,77.97
2022-12-05T00:08:56.372Z,70.47
2022-12-05T00:11:25.578Z,75.90
2022-12-05T00:13:54.178Z,75.70
2022-12-05T00:16:22.719Z,80.20
2022-12-05T00:18:53.437Z,76.83
2022-12-05T00:21:25.178Z,72.73
2022-12-05T00:23:53.525Z,70.63
2022-12-05T00:26:20.552Z,73.93
2022-12-05T00:28:47.498Z,81.70
2022-12-05T00:31:18.520Z,77.13
2022-12-05T00:33:45.623Z,72.50
2022-12-05T00:36:14.388Z,73.03
2022-12-05T00:38:42.151Z,74.57
2022-12-05T00:41:11.738Z,67.87
2022-12-05T00:43:39.240Z,70.97
2022-12-05T00:46:09.725Z,76.97
2022-12-05T00:48:36.640Z,73.40
2022-12-05T00:51:12.982Z,77.93
2022-12-05T00:53:40.064Z,77.83
2022-12-05T00:56:12.040Z,84.13
2022-12-05T00:58:38.978Z,77.23
2022-12-05T01:01:14.414Z,68.80
2022-12-05T01:03:41.438Z,75.60
2022-12-05T01:06:08.324Z,74.80
2022-12-05T01:08:35.537Z,67.63
2022-12-05T01:11:03.142Z,66.13
2022-12-05T01:13:29.792Z,77.40
2022-12-05T01:15:56.769Z,80.13
2022-12-05T01:18:23.898Z,71.87
2022-12-05T01:20:51.812Z,68.10
2022-12-05T01:23:18.690Z,73.30
2022-12-05T01:25:48.236Z,78.07
2022-12-05T01:28:15.525Z,71.80
2022-12-05T01:30:44.241Z,73.30
2022-12-05T01:33:11.439Z,68.43
2022-12-05T01:35:39.332Z,70.17
2022-12-05T01:38:07.299Z,74.20
2022-12-05T01:40:36.032Z,72.43
2022-12-05T01:43:03.685Z,66.07
2022-12-05T01:45:48.487Z,68.53
2022-12-05T01:48:21.200Z,66.27
2022-12-05T01:50:48.692Z,73.27
2022-12-05T01:53:16.707Z,73.67
2022-12-05T01:55:44.236Z,63.17
2022-12-05T01:58:11.298Z,68.60
2022-12-05T02:00:39.555Z,66.07
2022-12-05T02:03:12.978Z,67.10
2022-12-05T02:05:39.681Z,67.22
2022-12-05T02:08:08.555Z,69.63
2022-12-05T02:10:39.276Z,63.17
2022-12-05T02:13:17.927Z,64.60
2022-12-05T02:15:59.742Z,68.43
2022-12-05T02:18:37.638Z,66.07
2022-12-05T02:21:13.559Z,63.77
2022-12-05T02:24:12.027Z,66.63
2022-12-05T02:26:46.334Z,70.27
2022-12-05T02:34:42.660Z,65.63
2022-12-05T02:37:18.031Z,65.87
2022-12-05T02:39:53.439Z,64.43
2022-12-05T02:42:25.943Z,65.73
2022-12-05T02:44:56.179Z,59.90
2022-12-05T02:47:26.565Z,60.87
2022-12-05T02:49:54.091Z,73.00
2022-12-05T02:52:21.998Z,69.87
2022-12-05T02:54:49.826Z,61.40
2022-12-05T02:57:16.893Z,72.73
2022-12-05T02:59:44.620Z,59.17
2022-12-05T03:02:26.977Z,64.80
2022-12-05T03:04:56.238Z,65.13
2022-12-05T03:07:23.813Z,62.23
2022-12-05T03:09:57.126Z,66.53
2022-12-05T03:12:30.274Z,64.85
2022-12-05T03:15:04.910Z,64.00
2022-12-05T03:17:41.948Z,65.27
2022-12-05T03:20:32.662Z,62.27
2022-12-05T03:23:13.110Z,72.93
2022-12-05T03:25:50.832Z,59.87
2022-12-05T03:28:25.269Z,69.50
2022-12-05T03:30:54.237Z,60.30
2022-12-05T03:33:24.200Z,67.13
2022-12-05T03:36:03.603Z,62.93
2022-12-05T03:38:34.717Z,55.60
2022-12-05T03:41:13.302Z,65.27
2022-12-05T03:43:53.263Z,60.97
2022-12-05T03:46:27.906Z,59.90
2022-12-05T03:49:05.152Z,67.60
2022-12-05T03:51:36.135Z,57.40
2022-12-05T03:54:11.056Z,59.97
2022-12-05T03:56:43.098Z,64.30
2022-12-05T03:59:38.460Z,67.40
2022-12-05T04:02:13.016Z,63.13
2022-12-05T04:04:46.567Z,65.67
2022-12-05T04:07:14.124Z,59.05
2022-12-05T04:09:56.170Z,65.47
2022-12-05T04:12:27.667Z,62.97
2022-12-05T04:15:00.148Z,62.40
2022-12-05T04:17:32.394Z,66.87
2022-12-05T04:20:23.699Z,63.50
2022-12-05T04:22:53.517Z,59.80
2022-12-05T04:25:35.441Z,51.83
2022-12-05T04:28:25.173Z,56.20
2022-12-05T04:31:11.804Z,54.73
2022-12-05T04:33:57.311Z,57.00
2022-12-05T04:36:54.980Z,53.07
2022-12-05T04:39:36.723Z,46.27
2022-12-05T04:42:12.417Z,51.30
2022-12-05T04:45:00.212Z,51.10
2022-12-05T04:47:30.794Z,45.63
2022-12-05T04:49:59.064Z,48.50
2022-12-05T04:52:29.034Z,54.73
2022-12-05T04:55:05.508Z,47.87
2022-12-05T04:57:36.880Z,45.90
2022-12-05T05:00:04.998Z,48.20
2022-12-05T05:02:43.661Z,45.40
2022-12-05T05:05:14.091Z,47.03
2022-12-05T05:07:45.813Z,50.37
2022-12-05T05:10:16.307Z,49.07
2022-12-05T05:12:42.939Z,45.00
2022-12-05T05:15:09.749Z,53.50
2022-12-05T05:17:36.405Z,47.83
2022-12-05T05:20:22.560Z,51.93
2022-12-05T05:22:50.676Z,50.63
2022-12-05T05:25:17.981Z,51.33
2022-12-05T05:27:51.062Z,48.57
2022-12-05T05:30:19.326Z,48.33
2022-12-05T05:32:46.097Z,42.60
2022-12-05T05:35:13.312Z,53.17
2022-12-05T05:37:40.527Z,45.07
2022-12-05T05:40:11.075Z,47.20
2022-12-05T05:42:42.990Z,43.97
2022-12-05T05:45:10.606Z,45.03
2022-12-05T05:47:37.189Z,41.33
2022-12-05T05:50:04.484Z,42.10
2022-12-05T05:52:33.636Z,42.80
2022-12-05T05:55:01.016Z,38.33
2022-12-05T05:57:27.623Z,43.33
2022-12-05T05:59:54.288Z,34.23
2022-12-05T06:02:21.011Z,40.07
2022-12-05T06:04:47.777Z,39.10
2022-12-05T06:07:14.564Z,35.37
2022-12-05T06:09:41.370Z,33.50
2022-12-05T06:12:09.262Z,39.33
2022-12-05T06:14:35.929Z,35.80
2022-12-05T06:17:02.619Z,33.53
2022-12-05T06:19:32.449Z,33.00
2022-12-05T06:21:59.077Z,33.43
2022-12-05T06:24:25.698Z,31.73
2022-12-05T06:26:52.318Z,26.40
2022-12-05T06:29:21.669Z,32.73
2022-12-05T06:31:51.915Z,35.13
2022-12-05T06:34:18.506Z,33.57
2022-12-05T06:36:45.123Z,34.50
2022-12-05T06:39:11.708Z,27.17
2022-12-05T06:41:38.312Z,29.73
2022-12-05T06:44:04.953Z,27.67
2022-12-05T06:46:31.615Z,25.43
2022-12-05T06:48:59.026Z,25.83
2022-12-05T06:51:25.753Z,27.97
2022-12-05T06:53:52.396Z,24.53
2022-12-05T06:56:20.050Z,23.33
2022-12-05T06:58:50.863Z,24.37
2022-12-05T07:01:38.623Z,20.60
2022-12-05T07:04:08.162Z,24.30
2022-12-05T07:06:35.509Z,24.77
2022-12-05T07:09:03.337Z,27.77
2022-12-05T07:11:30.025Z,25.83
2022-12-05T07:13:56.842Z,23.00
2022-12-05T07:16:24.106Z,22.30
2022-12-05T07:18:51.135Z,23.23
2022-12-05T07:21:17.855Z,21.37
2022-12-05T07:23:45.858Z,22.03
2022-12-05T07:26:15.272Z,25.37
2022-12-05T07:28:42.050Z,19.63
2022-12-05T07:31:11.271Z,18.60
2022-12-05T07:33:38.431Z,21.20
2022-12-05T07:36:10.914Z,22.47
2022-12-05T07:38:37.686Z,19.13
2022-12-05T07:41:14.137Z,18.73
2022-12-05T07:43:41.810Z,21.47
2022-12-05T07:46:11.437Z,16.43
2022-12-05T07:48:38.741Z,22.30
2022-12-05T07:51:06.799Z,17.50
2022-12-05T07:53:33.731Z,20.47
2022-12-05T07:56:01.472Z,17.70
2022-12-05T07:58:29.405Z,18.90
2022-12-05T08:00:56.900Z,16.10
2022-12-05T08:03:23.646Z,16.63
2022-12-05T08:05:50.282Z,16.77
2022-12-05T08:08:16.943Z,16.03
2022-12-05T08:10:43.759Z,19.03
2022-12-05T08:13:10.458Z,19.07
2022-12-05T08:15:37.077Z,16.23
2022-12-05T08:18:03.829Z,15.03
2022-12-05T08:20:30.680Z,19.20
2022-12-05T08:22:57.868Z,17.37
2022-12-05T08:25:24.553Z,14.90
2022-12-05T08:27:51.177Z,18.53
2022-12-05T08:30:18.206Z,16.83
2022-12-05T08:32:44.805Z,17.13
2022-12-05T08:35:11.456Z,16.27
2022-12-05T08:37:38.255Z,17.93
2022-12-05T08:40:05.606Z,16.33
2022-12-05T08:42:32.283Z,15.90
2022-12-05T08:44:59.140Z,17.40
2022-12-05T08:47:26.011Z,15.63
2022-12-05T08:49:52.596Z,15.70
2022-12-05T08:52:19.196Z,19.13
2022-12-05T08:54:45.798Z,14.30
2022-12-05T08:57:12.444Z,17.33
2022-12-05T08:59:39.039Z,15.07
2022-12-05T09:02:05.995Z,19.77
2022-12-05T09:04:32.700Z,16.87
2022-12-05T09:07:02.598Z,20.83
2022-12-05T09:09:29.476Z,19.93
2022-12-05T09:11:57.834Z,17.67
2022-12-05T09:14:24.497Z,16.40
2022-12-05T09:16:51.108Z,18.23
2022-12-05T09:19:24.961Z,17.43
2022-12-05T09:21:51.648Z,20.85
2022-12-05T09:24:18.257Z,17.53
2022-12-05T09:26:45.101Z,22.37
2022-12-05T09:29:16.852Z,17.60
2022-12-05T09:31:45.280Z,17.07
2022-12-05T09:34:14.087Z,20.23
2022-12-05T09:36:41.112Z,16.57
2022-12-05T09:39:08.293Z,16.37
2022-12-05T09:42:03.000Z,18.97
2022-12-05T09:44:46.265Z,16.77
2022-12-05T09:47:28.291Z,19.47
2022-12-05T09:49:58.206Z,17.50
2022-12-05T09:52:29.905Z,16.73
2022-12-05T09:55:01.879Z,16.00
2022-12-05T09:57:37.318Z,17.27
2022-12-05T10:00:05.989Z,16.70
2022-12-05T10:02:41.354Z,17.67
2022-12-05T10:05:14.230Z,16.73
2022-12-05T10:07:46.911Z,16.27
2022-12-05T10:10:50.831Z,16.80
2022-12-05T10:13:32.573Z,18.17
2022-12-05T10:16:27.619Z,25.93
2022-12-05T10:19:00.275Z,19.37
2022-12-05T10:21:59.137Z,17.97
2022-12-05T10:24:36.658Z,17.60
2022-12-05T10:27:06.486Z,16.90
2022-12-05T10:30:09.492Z,17.00
2022-12-05T10:32:40.696Z,15.27
2022-12-05T10:35:17.926Z,18.30
2022-12-05T10:37:48.397Z,15.53
2022-12-05T10:40:15.151Z,15.60
2022-12-05T10:42:42.042Z,15.87
2022-12-05T10:45:15.541Z,18.33
2022-12-05T10:47:42.178Z,15.90
2022-12-05T10:50:33.164Z,16.37
2022-12-05T10:53:01.753Z,16.13
2022-12-05T10:55:32.827Z,16.63
2022-12-05T10:58:17.539Z,17.63
2022-12-05T11:00:46.870Z,18.00
2022-12-05T11:03:26.700Z,14.73
2022-12-05T11:05:55.033Z,15.00
2022-12-05T11:08:55.809Z,14.87
2022-12-05T11:11:23.788Z,17.40
2022-12-05T11:14:07.545Z,15.97
2022-12-05T11:16:37.208Z,14.98
2022-12-05T11:19:23.606Z,17.20
2022-12-05T11:21:50.888Z,14.63
2022-12-05T11:24:23.283Z,16.50
2022-12-05T11:26:50.725Z,16.33
2022-12-05T11:30:01.976Z,17.47
2022-12-05T11:32:33.308Z,15.60
2022-12-05T11:35:12.032Z,16.20
2022-12-05T11:37:45.108Z,18.00
2022-12-05T11:40:17.815Z,18.27
2022-12-05T11:43:09.060Z,18.60
2022-12-05T11:45:51.397Z,15.47
2022-12-05T11:48:39.348Z,15.67
2022-12-05T11:51:40.538Z,16.27
2022-12-05T11:54:56.757Z,15.83
2022-12-05T11:57:53.626Z,14.10
2022-12-05T12:00:31.091Z,12.77
2022-12-05T12:03:22.800Z,13.80
2022-12-05T12:05:55.665Z,15.97
2022-12-05T12:08:27.731Z,13.60
2022-12-05T12:11:13.069Z,13.37
2022-12-05T12:14:04.541Z,14.07
2022-12-05T12:16:42.983Z,12.87
2022-12-05T12:19:41.957Z,13.63
2022-12-05T12:22:21.647Z,14.50
2022-12-05T12:25:02.694Z,18.73
2022-12-05T12:27:49.947Z,16.00
2022-12-05T12:30:29.192Z,14.37
2022-12-05T12:33:06.785Z,13.50
2022-12-05T12:35:41.604Z,14.73
2022-12-05T12:38:50.984Z,15.20
2022-12-05T12:41:36.769Z,17.70
2022-12-05T12:44:33.998Z,16.50
2022-12-05T12:47:02.050Z,15.47
2022-12-05T12:49:40.844Z,15.77
2022-12-05T12:52:16.234Z,17.43
2022-12-05T12:55:14.984Z,17.33
2022-12-05T12:58:04.955Z,16.03
2022-12-05T13:00:34.549Z,18.13
2022-12-05T13:03:30.625Z,17.17
2022-12-05T13:06:01.277Z,16.80
2022-12-05T13:08:35.791Z,16.00
2022-12-05T13:11:05.602Z,15.83
2022-12-05T13:13:36.721Z,17.87
2022-12-05T13:16:07.676Z,16.10
2022-12-05T13:18:35.498Z,18.70
2022-12-05T13:21:07.134Z,18.87
2022-12-05T13:23:44.614Z,17.43
2022-12-05T13:26:12.112Z,15.07
2022-12-05T13:28:55.888Z,13.73
2022-12-05T13:31:36.348Z,18.33
2022-12-05T13:34:02.987Z,15.93
2022-12-05T13:36:57.192Z,16.47
2022-12-05T13:39:42.411Z,14.93
2022-12-05T13:42:24.525Z,14.43
2022-12-05T13:44:57.527Z,17.27
2022-12-05T13:47:28.986Z,17.10
2022-12-05T13:50:16.758Z,15.97
2022-12-05T13:52:48.777Z,14.50
2022-12-05T13:55:35.961Z,18.20
2022-12-05T13:58:18.582Z,14.67
2022-12-05T14:00:45.345Z,17.90
2022-12-05T14:03:22.098Z,18.43
2022-12-05T14:05:50.902Z,19.97
2022-12-05T14:08:35.617Z,17.77
2022-12-05T14:11:02.446Z,16.73
2022-12-05T14:13:30.198Z,16.60
2022-12-05T14:16:22.658Z,19.80
2022-12-05T14:19:06.515Z,15.90
2022-12-05T14:21:42.044Z,18.30
2022-12-05T14:24:33.055Z,18.73
2022-12-05T14:27:15.584Z,20.47
2022-12-05T14:30:01.247Z,21.80
2022-12-05T14:32:37.041Z,17.37
2022-12-05T14:35:20.873Z,16.70
2022-12-05T14:37:59.477Z,23.33
2022-12-05T14:40:41.061Z,19.77
2022-12-05T14:43:29.181Z,17.90
2022-12-05T14:46:02.511Z,18.90
2022-12-05T14:48:32.493Z,19.67
2022-12-05T14:51:00.230Z,23.93
2022-12-05T14:53:43.085Z,22.33
2022-12-05T14:56:17.392Z,17.10
2022-12-05T15:01:43.292Z,21.30
2022-12-05T15:04:31.300Z,18.93
2022-12-05T15:07:00.872Z,24.33
2022-12-05T15:09:59.532Z,19.00
2022-12-05T15:12:29.832Z,20.67
2022-12-05T15:15:06.479Z,25.63
2022-12-05T15:17:39.924Z,24.87
2022-12-05T15:20:15.396Z,24.07
2022-12-05T15:22:42.544Z,21.73
2022-12-05T15:25:35.515Z,22.17
2022-12-05T15:28:05.417Z,23.60
2022-12-05T15:30:35.469Z,26.47
2022-12-05T15:33:02.806Z,21.70
2022-12-05T15:35:32.474Z,26.40
2022-12-05T15:38:09.406Z,20.37
2022-12-05T15:40:39.488Z,27.17
2022-12-05T15:43:27.673Z,29.57
2022-12-05T15:46:24.199Z,26.20
2022-12-05T15:48:52.578Z,23.33
2022-12-05T15:51:20.347Z,22.40
2022-12-05T15:53:59.311Z,26.83
2022-12-05T15:57:07.361Z,22.87
2022-12-05T15:59:45.897Z,23.07
2022-12-05T16:02:25.795Z,23.43
2022-12-05T16:04:57.622Z,24.70
2022-12-05T16:07:27.232Z,27.30
2022-12-05T16:09:57.368Z,27.07
2022-12-05T16:12:34.862Z,27.77
2022-12-05T16:15:04.437Z,21.97
2022-12-05T16:17:42.894Z,26.30
2022-12-05T16:20:22.426Z,25.20
2022-12-05T16:22:51.050Z,24.93
2022-12-05T16:25:22.275Z,23.03
2022-12-05T16:28:00.536Z,20.93
2022-12-05T16:30:28.246Z,26.43
2022-12-05T16:33:00.651Z,24.93
2022-12-05T16:35:30.265Z,28.77
2022-12-05T16:38:24.741Z,26.93
2022-12-05T16:41:02.690Z,29.17
2022-12-05T16:43:32.570Z,30.40
2022-12-05T16:46:08.060Z,27.47
2022-12-05T16:48:35.792Z,28.83
2022-12-05T16:51:11.360Z,28.40
2022-12-05T16:53:39.516Z,28.83
2022-12-05T16:56:07.609Z,31.23
2022-12-05T16:58:35.454Z,28.83
2022-12-05T17:01:05.032Z,38.83
2022-12-05T17:03:34.801Z,34.53
2022-12-05T17:06:02.417Z,28.20
2022-12-05T17:08:29.480Z,27.93
2022-12-05T17:10:56.105Z,29.10
2022-12-05T17:13:22.754Z,27.40
2022-12-05T17:15:49.492Z,26.20
2022-12-05T17:18:18.074Z,33.33
2022-12-05T17:20:49.248Z,30.00
2022-12-05T17:23:16.009Z,30.17
2022-12-05T17:25:53.566Z,29.67
2022-12-05T17:28:20.734Z,29.10
2022-12-05T17:30:47.615Z,33.40
2022-12-05T17:33:16.187Z,29.97
2022-12-05T17:35:43.136Z,33.30
2022-12-05T17:38:10.767Z,31.87
2022-12-05T17:40:38.202Z,37.33
2022-12-05T17:43:05.351Z,33.87
2022-12-05T17:45:32.245Z,35.63
2022-12-05T17:47:58.910Z,31.10
2022-12-05T17:50:26.105Z,32.37
2022-12-05T17:52:55.835Z,35.23
2022-12-05T17:55:30.954Z,35.63
2022-12-05T17:57:57.597Z,36.97
2022-12-05T18:00:24.942Z,39.20
2022-12-05T18:02:52.652Z,30.40
2022-12-05T18:05:19.652Z,35.93
2022-12-05T18:07:47.156Z,34.23
2022-12-05T18:10:17.634Z,33.77
2022-12-05T18:12:44.277Z,31.07
2022-12-05T18:15:11.309Z,33.93
2022-12-05T18:17:38.222Z,34.03
2022-12-05T18:20:07.100Z,32.10
2022-12-05T18:22:37.218Z,32.53
2022-12-05T18:25:05.495Z,29.37
2022-12-05T18:27:36.841Z,28.47
2022-12-05T18:30:04.865Z,27.00
2022-12-05T18:32:31.504Z,29.27
2022-12-05T18:37:39.347Z,34.23
2022-12-05T18:40:07.729Z,32.83
2022-12-05T18:42:34.404Z,26.67
2022-12-05T18:45:01.924Z,28.50
2022-12-05T18:47:28.680Z,27.23
2022-12-05T18:49:55.283Z,30.17
2022-12-05T18:52:21.912Z,29.43
2022-12-05T18:54:57.843Z,29.67
2022-12-05T18:57:30.691Z,28.73
2022-12-05T18:59:57.320Z,33.03
2022-12-05T19:02:24.661Z,28.37
2022-12-05T19:04:51.396Z,31.63
2022-12-05T19:07:18.008Z,30.20
2022-12-05T19:09:44.596Z,27.67
2022-12-05T19:12:11.209Z,34.03
2022-12-05T19:14:38.030Z,28.63
2022-12-05T19:17:04.711Z,27.90
2022-12-05T19:19:31.410Z,31.10
2022-12-05T19:21:59.711Z,27.20
2022-12-05T19:24:26.445Z,29.83
2022-12-05T19:26:53.072Z,29.77
2022-12-05T19:29:19.827Z,30.30
2022-12-05T19:31:46.939Z,33.03
2022-12-05T19:34:13.723Z,32.53
2022-12-05T19:36:42.959Z,24.83
2022-12-05T19:39:10.831Z,28.73
2022-12-05T19:41:37.854Z,28.07
2022-12-05T19:44:05.148Z,27.40
2022-12-05T19:46:33.173Z,32.30
2022-12-05T19:49:03.449Z,31.30
2022-12-05T19:51:31.238Z,27.73
2022-12-05T19:54:02.569Z,32.67
2022-12-05T19:56:30.657Z,30.37
2022-12-05T19:58:59.038Z,29.30
2022-12-05T20:01:38.645Z,28.23
2022-12-05T20:04:10.749Z,27.60
2022-12-05T20:06:55.760Z,34.63
2022-12-05T20:09:22.862Z,25.60
2022-12-05T20:11:54.980Z,28.13
2022-12-05T20:14:23.271Z,25.10
2022-12-05T20:16:49.925Z,30.90
2022-12-05T20:19:16.742Z,24.97
2022-12-05T20:21:44.493Z,25.37
2022-12-05T20:24:11.615Z,32.07
2022-12-05T20:26:41.263Z,30.70
2022-12-05T20:29:07.880Z,35.23
2022-12-05T20:31:39.441Z,26.17
2022-12-05T20:34:07.353Z,32.07
2022-12-05T20:36:34.726Z,26.47
2022-12-05T20:39:08.063Z,30.50
2022-12-05T20:41:34.798Z,28.37
2022-12-05T20:44:03.384Z,27.47
2022-12-05T20:46:31.767Z,31.87
2022-12-05T20:48:58.550Z,29.53
2022-12-05T20:51:30.127Z,26.33
2022-12-05T20:53:58.437Z,30.17
2022-12-05T20:56:28.180Z,28.17
2022-12-05T20:58:56.913Z,32.00
2022-12-05T21:01:24.756Z,30.73
2022-12-05T21:03:52.496Z,31.23
2022-12-05T21:06:28.674Z,30.10
2022-12-05T21:08:56.378Z,29.60
2022-12-05T21:11:23.690Z,29.20
2022-12-05T21:13:50.670Z,28.50
2022-12-05T21:16:21.449Z,30.90
2022-12-05T21:18:49.056Z,29.97
2022-12-05T21:21:21.140Z,31.90
2022-12-05T21:23:53.259Z,31.87
2022-12-05T21:26:21.996Z,32.87
2022-12-05T21:28:49.024Z,31.33
2022-12-05T21:31:23.975Z,34.13
2022-12-05T21:33:52.921Z,29.13
2022-12-05T21:36:20.533Z,28.90
2022-12-05T21:38:50.849Z,25.73
2022-12-05T21:41:22.235Z,33.00
2022-12-05T21:43:54.074Z,32.60
2022-12-05T21:46:21.747Z,33.33
2022-12-05T21:48:48.550Z,35.43
2022-12-05T21:51:15.386Z,30.67
2022-12-05T21:53:42.193Z,31.97
2022-12-05T21:56:17.418Z,29.67
2022-12-05T21:58:45.150Z,30.07
2022-12-05T22:01:17.408Z,27.83
2022-12-05T22:03:44.930Z,28.57
2022-12-05T22:06:17.144Z,28.60
2022-12-05T22:08:43.773Z,29.30
2022-12-05T22:11:12.842Z,32.67
2022-12-05T22:13:40.338Z,26.57
2022-12-05T22:16:07.880Z,28.10
2022-12-05T22:18:35.099Z,28.87
2022-12-05T22:21:11.476Z,30.03
2022-12-05T22:23:38.066Z,30.07
2022-12-05T22:26:07.000Z,29.37
2022-12-05T22:28:34.326Z,26.63
2022-12-05T22:31:02.382Z,29.73
2022-12-05T22:33:29.341Z,28.87
2022-12-05T22:35:58.277Z,32.40
2022-12-05T22:38:26.303Z,28.33
2022-12-05T22:40:54.517Z,29.43
2022-12-05T22:43:21.430Z,29.87
2022-12-05T22:45:48.169Z,29.40
2022-12-05T22:48:14.792Z,30.80
2022-12-05T22:50:48.867Z,27.90
2022-12-05T22:53:18.026Z,27.83
2022-12-05T22:55:44.613Z,27.20
2022-12-05T22:58:11.367Z,26.50
2022-12-05T23:00:38.329Z,27.73
2022-12-05T23:03:05.363Z,30.20
2022-12-05T23:05:32.172Z,25.07
2022-12-05T23:07:58.888Z,26.07
2022-12-05T23:10:25.770Z,27.10
2022-12-05T23:12:52.338Z,26.43
2022-12-05T23:15:21.899Z,24.13
2022-12-05T23:17:48.999Z,26.47
2022-12-05T23:20:16.118Z,26.20
2022-12-05T23:22:43.746Z,25.73
2022-12-05T23:25:10.392Z,26.00
2022-12-05T23:27:37.046Z,25.43
2022-12-05T23:30:05.159Z,28.33
2022-12-05T23:32:31.746Z,26.37
2022-12-05T23:34:58.362Z,26.97
2022-12-05T23:37:25.123Z,26.13
2022-12-05T23:39:51.788Z,26.70
2022-12-05T23:42:18.457Z,25.53
2022-12-05T23:44:45.205Z,23.20
2022-12-05T23:47:11.927Z,25.40
2022-12-05T23:49:38.655Z,24.13
2022-12-05T23:52:05.317Z,25.53
2022-12-05T23:54:31.969Z,25.90
2022-12-05T23:56:58.589Z,21.73
2022-12-05T23:59:25.175Z,25.77
